Time;durP1;ratioP1;P1;durP2;ratioP2;P2;SDS_P1;SDS_P2;PMS_P1;PMS_P2;Temp;Humidity;BMP_temperature;BMP_pressure;BME280_temperature;BME280_humidity;BME280_pressure;Samples;Min_cycle;Max_cycle;Signal;HPM_P1;HPM_P2
2022/07/04 00:00:14;;;;;;;;;;;14.20;99.90;;;;;;5033867;28;19924;-74
2022/07/04 00:02:40;;;;;;;;;;;14.20;99.90;;;;;;5033125;28;19955;-73
2022/07/04 00:05:10;;;;;;;;;;;14.20;99.90;;;;;;5029857;28;20366;-73
2022/07/04 00:07:38;;;;;;;;;;;14.20;99.90;;;;;;5032821;28;19918;-74
2022/07/04 00:10:05;;;;;;;;;;;14.30;99.90;;;;;;5031937;28;19928;-74
2022/07/04 00:12:30;;;;;;;;;;;14.40;99.90;;;;;;5034522;28;19952;-74
2022/07/04 00:14:56;;;;;;;;;;;14.40;99.90;;;;;;5033172;28;19942;-73
2022/07/04 00:17:21;;;;;;;;;;;14.30;99.90;;;;;;5030097;28;19913;-76
2022/07/04 00:19:47;;;;;;;;;;;14.20;99.90;;;;;;5031727;28;20016;-73
2022/07/04 00:22:13;;;;;;;;;;;14.10;99.90;;;;;;5031286;28;20312;-74
2022/07/04 00:24:38;;;;;;;;;;;14.00;99.90;;;;;;5030751;28;20217;-73
2022/07/04 00:27:04;;;;;;;;;;;14.00;99.90;;;;;;5032226;28;19932;-73
2022/07/04 00:29:29;;;;;;;;;;;13.90;99.90;;;;;;5032615;28;19940;-74
2022/07/04 00:31:55;;;;;;;;;;;13.80;99.90;;;;;;5033042;28;20399;-73
2022/07/04 00:34:21;;;;;;;;;;;13.80;99.90;;;;;;5032597;28;20560;-74
2022/07/04 00:36:46;;;;;;;;;;;13.80;99.90;;;;;;5031717;28;19920;-74
2022/07/04 00:39:12;;;;;;;;;;;13.80;99.90;;;;;;5033327;28;20004;-73
2022/07/04 00:41:37;;;;;;;;;;;13.80;99.90;;;;;;5033240;28;19914;-74
2022/07/04 00:44:04;;;;;;;;;;;13.70;99.90;;;;;;5030859;28;20003;-76
2022/07/04 00:46:29;;;;;;;;;;;13.70;99.90;;;;;;5020314;28;19930;-75
2022/07/04 00:48:55;;;;;;;;;;;13.60;99.90;;;;;;5025575;28;20232;-72
2022/07/04 00:51:20;;;;;;;;;;;13.60;99.90;;;;;;5032853;28;19956;-75
2022/07/04 00:53:46;;;;;;;;;;;13.60;99.90;;;;;;5032313;28;19920;-73
2022/07/04 00:56:11;;;;;;;;;;;13.60;99.90;;;;;;5032267;28;19917;-74
2022/07/04 00:58:37;;;;;;;;;;;13.60;99.90;;;;;;5065444;28;19913;-74
2022/07/04 01:01:03;;;;;;;;;;;13.60;99.90;;;;;;5033111;28;19960;-74
2022/07/04 01:03:29;;;;;;;;;;;13.50;99.90;;;;;;5032146;28;19995;-73
2022/07/04 01:05:55;;;;;;;;;;;13.50;99.90;;;;;;5034812;28;19928;-74
2022/07/04 01:08:21;;;;;;;;;;;13.40;99.90;;;;;;5036371;28;20015;-74
2022/07/04 01:10:46;;;;;;;;;;;13.40;99.90;;;;;;5068869;28;19917;-74
2022/07/04 01:13:19;;;;;;;;;;;13.40;99.90;;;;;;5036177;28;19925;-73
2022/07/04 01:15:44;;;;;;;;;;;13.40;99.90;;;;;;5066422;28;20020;-74
2022/07/04 01:18:10;;;;;;;;;;;13.40;99.90;;;;;;5037145;28;20352;-74
2022/07/04 01:20:36;;;;;;;;;;;13.50;99.90;;;;;;5036926;28;19921;-74
2022/07/04 01:23:02;;;;;;;;;;;13.50;99.90;;;;;;5035763;28;19913;-74
2022/07/04 01:25:27;;;;;;;;;;;13.50;99.90;;;;;;5034562;28;19919;-74
2022/07/04 01:27:53;;;;;;;;;;;13.60;99.90;;;;;;5031745;28;19917;-75
2022/07/04 01:30:18;;;;;;;;;;;13.60;99.90;;;;;;5034592;28;19917;-73
2022/07/04 01:32:44;;;;;;;;;;;13.50;99.90;;;;;;5033639;28;20312;-74
2022/07/04 01:35:10;;;;;;;;;;;13.60;99.90;;;;;;5068980;28;19971;-74
2022/07/04 01:37:36;;;;;;;;;;;13.60;99.90;;;;;;5035207;28;19921;-73
2022/07/04 01:40:02;;;;;;;;;;;13.70;99.90;;;;;;5035838;28;20326;-74
2022/07/04 01:42:27;;;;;;;;;;;13.80;99.90;;;;;;5033297;28;19921;-74
2022/07/04 01:44:53;;;;;;;;;;;13.80;99.90;;;;;;5035622;28;19964;-73
2022/07/04 01:47:18;;;;;;;;;;;13.70;99.90;;;;;;5035819;28;19921;-73
2022/07/04 01:49:44;;;;;;;;;;;13.70;99.90;;;;;;5036498;28;19932;-73
2022/07/04 01:52:09;;;;;;;;;;;13.70;99.90;;;;;;5035373;28;19923;-74
2022/07/04 01:54:35;;;;;;;;;;;13.60;99.90;;;;;;5035096;28;20394;-73
2022/07/04 01:57:00;;;;;;;;;;;13.60;99.90;;;;;;5036229;28;19959;-74
2022/07/04 02:01:29;;;;;;;;;;;13.50;99.90;;;;;;5037123;28;19940;-75
2022/07/04 02:02:12;;;;;;;;;;;13.50;99.90;;;;;;5031233;28;20291;-74
2022/07/04 02:04:37;;;;;;;;;;;13.50;99.90;;;;;;5036119;28;19939;-74
2022/07/04 02:07:03;;;;;;;;;;;13.40;99.90;;;;;;5036538;28;20220;-73
2022/07/04 02:09:30;;;;;;;;;;;13.40;99.90;;;;;;5035030;28;19964;-74
2022/07/04 02:14:41;;;;;;;;;;;13.40;99.90;;;;;;5035441;28;19940;-74
2022/07/04 02:17:07;;;;;;;;;;;13.40;99.90;;;;;;5035600;28;19913;-74
2022/07/04 02:19:32;;;;;;;;;;;13.40;99.90;;;;;;5035574;28;19913;-74
2022/07/04 02:21:58;;;;;;;;;;;13.40;99.90;;;;;;5066778;28;19913;-74
2022/07/04 02:24:24;;;;;;;;;;;13.50;99.90;;;;;;5034495;28;19925;-75
2022/07/04 02:26:49;;;;;;;;;;;13.50;99.90;;;;;;5028903;28;19917;-74
2022/07/04 02:29:15;;;;;;;;;;;13.60;99.90;;;;;;5036368;28;19940;-74
2022/07/04 02:31:41;;;;;;;;;;;13.60;99.90;;;;;;5034246;28;19913;-74
2022/07/04 02:34:07;;;;;;;;;;;13.60;99.90;;;;;;5033291;28;19920;-73
2022/07/04 02:36:32;;;;;;;;;;;13.60;99.90;;;;;;5032663;28;20324;-74
2022/07/04 02:38:58;;;;;;;;;;;13.60;99.90;;;;;;5026509;28;19913;-74
2022/07/04 02:41:23;;;;;;;;;;;13.60;99.90;;;;;;5031348;28;19925;-74
2022/07/04 02:43:49;;;;;;;;;;;13.60;99.90;;;;;;5029389;28;19944;-74
2022/07/04 02:46:14;;;;;;;;;;;13.60;99.90;;;;;;5035233;28;20220;-74
2022/07/04 02:48:40;;;;;;;;;;;13.60;99.90;;;;;;5066086;28;19913;-73
2022/07/04 02:51:05;;;;;;;;;;;13.60;99.90;;;;;;5034441;28;19920;-74
2022/07/04 02:53:31;;;;;;;;;;;13.60;99.90;;;;;;5032187;28;19918;-74
2022/07/04 02:55:56;;;;;;;;;;;13.60;99.90;;;;;;5033418;28;20293;-74
2022/07/04 02:58:22;;;;;;;;;;;13.50;99.90;;;;;;5035647;28;20324;-74
2022/07/04 03:00:48;;;;;;;;;;;13.50;99.90;;;;;;5033221;28;19996;-73
2022/07/04 03:03:13;;;;;;;;;;;13.50;99.90;;;;;;5034756;28;19952;-74
2022/07/04 03:05:39;;;;;;;;;;;13.50;99.90;;;;;;5033642;28;19960;-76
2022/07/04 03:08:05;;;;;;;;;;;13.60;99.90;;;;;;5034752;28;19921;-75
2022/07/04 03:10:30;;;;;;;;;;;13.60;99.90;;;;;;5035841;28;20300;-74
2022/07/04 03:12:56;;;;;;;;;;;13.60;99.90;;;;;;5027589;28;19922;-74
2022/07/04 03:15:21;;;;;;;;;;;13.70;99.90;;;;;;5032176;28;19920;-74
2022/07/04 03:17:47;;;;;;;;;;;13.70;99.90;;;;;;5032946;28;19913;-74
2022/07/04 03:20:12;;;;;;;;;;;13.70;99.90;;;;;;5034941;28;19913;-75
2022/07/04 03:22:38;;;;;;;;;;;13.60;99.90;;;;;;5067018;28;19913;-73
2022/07/04 03:25:05;;;;;;;;;;;13.60;99.90;;;;;;5033673;28;19921;-74
2022/07/04 03:27:30;;;;;;;;;;;13.60;99.90;;;;;;5009279;28;20207;-74
2022/07/04 03:29:56;;;;;;;;;;;13.40;99.90;;;;;;5030870;28;19913;-74
2022/07/04 03:32:21;;;;;;;;;;;13.50;99.90;;;;;;5066028;28;19913;-75
2022/07/04 03:34:47;;;;;;;;;;;13.40;99.90;;;;;;5033816;28;20292;-74
2022/07/04 03:37:12;;;;;;;;;;;13.40;99.90;;;;;;5032608;28;20267;-73
2022/07/04 03:39:38;;;;;;;;;;;13.40;99.90;;;;;;5065291;28;20221;-74
2022/07/04 03:42:03;;;;;;;;;;;13.40;99.90;;;;;;5032447;28;19921;-74
2022/07/04 03:44:29;;;;;;;;;;;13.40;99.90;;;;;;5032233;28;19999;-73
2022/07/04 03:46:54;;;;;;;;;;;13.50;99.90;;;;;;5030172;28;19955;-73
2022/07/04 03:49:20;;;;;;;;;;;13.60;99.90;;;;;;5033884;28;20090;-75
2022/07/04 03:51:46;;;;;;;;;;;13.60;99.90;;;;;;5031879;28;20354;-73
2022/07/04 03:54:11;;;;;;;;;;;13.70;99.90;;;;;;5032576;28;20323;-74
2022/07/04 03:56:37;;;;;;;;;;;13.70;99.90;;;;;;5029730;28;20569;-76
2022/07/04 03:59:02;;;;;;;;;;;13.70;99.90;;;;;;5032621;28;19913;-76
2022/07/04 04:01:29;;;;;;;;;;;13.80;99.90;;;;;;5032564;28;19935;-73
2022/07/04 04:06:38;;;;;;;;;;;13.80;99.90;;;;;;5026278;28;20287;-74
2022/07/04 04:09:04;;;;;;;;;;;13.80;99.90;;;;;;5031939;28;19925;-73
2022/07/04 04:11:31;;;;;;;;;;;13.80;99.90;;;;;;5031002;28;20236;-74
2022/07/04 04:13:56;;;;;;;;;;;13.80;99.90;;;;;;5033307;28;19967;-72
2022/07/04 04:16:22;;;;;;;;;;;13.70;99.90;;;;;;5032412;28;19917;-74
2022/07/04 04:18:47;;;;;;;;;;;13.70;99.90;;;;;;5031890;28;19921;-74
2022/07/04 04:21:13;;;;;;;;;;;13.80;99.90;;;;;;5032508;28;20012;-74
2022/07/04 04:23:38;;;;;;;;;;;13.90;99.90;;;;;;5030027;28;19969;-73
2022/07/04 04:26:04;;;;;;;;;;;13.90;99.90;;;;;;5031731;28;19925;-74
2022/07/04 04:28:29;;;;;;;;;;;14.00;99.90;;;;;;5030079;28;19924;-74
2022/07/04 04:30:55;;;;;;;;;;;14.00;99.90;;;;;;5032487;28;19913;-73
2022/07/04 04:33:20;;;;;;;;;;;14.00;99.90;;;;;;5032784;28;19971;-75
2022/07/04 04:35:46;;;;;;;;;;;14.10;99.90;;;;;;5029421;28;20263;-74
2022/07/04 04:38:11;;;;;;;;;;;14.20;99.90;;;;;;5029461;28;20206;-74
2022/07/04 04:40:37;;;;;;;;;;;14.20;99.90;;;;;;5031538;28;19913;-73
2022/07/04 04:43:03;;;;;;;;;;;14.30;99.90;;;;;;5022638;28;19921;-74
2022/07/04 04:45:28;;;;;;;;;;;14.30;99.90;;;;;;5016924;28;19932;-74
2022/07/04 04:47:54;;;;;;;;;;;14.30;99.90;;;;;;5026871;28;19971;-74
2022/07/04 04:50:20;;;;;;;;;;;14.40;99.90;;;;;;5034982;28;19917;-74
2022/07/04 04:52:46;;;;;;;;;;;14.50;99.90;;;;;;5035189;28;19974;-75
2022/07/04 04:55:11;;;;;;;;;;;14.50;99.90;;;;;;5033493;28;20278;-74
2022/07/04 04:57:37;;;;;;;;;;;14.60;99.90;;;;;;5034626;28;19913;-74
2022/07/04 05:00:04;;;;;;;;;;;14.60;99.90;;;;;;5035810;28;19913;-74
2022/07/04 05:02:29;;;;;;;;;;;14.70;99.90;;;;;;5034442;28;19979;-74
2022/07/04 05:04:55;;;;;;;;;;;14.80;99.90;;;;;;5035536;28;19924;-74
2022/07/04 05:07:21;;;;;;;;;;;14.80;99.90;;;;;;5034561;28;20316;-74
2022/07/04 05:09:46;;;;;;;;;;;14.90;99.90;;;;;;5035944;28;20348;-75
2022/07/04 05:12:12;;;;;;;;;;;15.00;99.90;;;;;;5033447;28;19921;-74
2022/07/04 05:14:38;;;;;;;;;;;15.10;99.90;;;;;;5033996;28;19936;-75
2022/07/04 05:17:04;;;;;;;;;;;15.20;99.90;;;;;;5034439;28;20326;-74
2022/07/04 05:19:29;;;;;;;;;;;15.20;99.90;;;;;;5033671;28;19920;-75
2022/07/04 05:21:55;;;;;;;;;;;15.30;99.90;;;;;;5034672;28;19920;-74
2022/07/04 05:24:20;;;;;;;;;;;15.30;99.90;;;;;;5034171;28;19921;-74
2022/07/04 05:26:46;;;;;;;;;;;15.20;99.90;;;;;;5035298;28;19956;-76
2022/07/04 05:29:12;;;;;;;;;;;15.20;99.90;;;;;;5035094;28;20007;-75
2022/07/04 05:31:37;;;;;;;;;;;15.20;99.90;;;;;;5017576;28;20012;-75
2022/07/04 05:34:03;;;;;;;;;;;15.20;99.90;;;;;;5034548;28;19913;-74
2022/07/04 05:36:29;;;;;;;;;;;15.30;99.90;;;;;;5034946;28;20016;-74
2022/07/04 05:38:54;;;;;;;;;;;15.40;99.90;;;;;;5032907;28;20236;-76
2022/07/04 05:41:20;;;;;;;;;;;15.50;99.90;;;;;;5034969;28;19921;-75
2022/07/04 05:43:45;;;;;;;;;;;15.50;99.90;;;;;;5067073;28;19936;-75
2022/07/04 05:46:11;;;;;;;;;;;15.60;99.90;;;;;;5034727;28;20300;-74
2022/07/04 05:48:36;;;;;;;;;;;15.60;99.90;;;;;;5025828;28;19917;-75
2022/07/04 05:51:03;;;;;;;;;;;15.60;99.90;;;;;;5033145;28;20211;-77
2022/07/04 05:53:28;;;;;;;;;;;15.70;99.90;;;;;;5024965;28;19921;-77
2022/07/04 05:55:54;;;;;;;;;;;15.70;99.90;;;;;;5035493;28;20217;-75
2022/07/04 05:58:19;;;;;;;;;;;15.70;99.90;;;;;;5033066;28;19921;-76
2022/07/04 06:00:45;;;;;;;;;;;15.80;99.90;;;;;;5035022;28;19913;-75
2022/07/04 06:03:10;;;;;;;;;;;15.80;99.90;;;;;;5016953;28;19956;-75
2022/07/04 06:05:36;;;;;;;;;;;15.90;99.90;;;;;;5035717;28;20308;-75
2022/07/04 06:08:02;;;;;;;;;;;16.00;99.90;;;;;;5032791;28;20228;-76
2022/07/04 06:10:27;;;;;;;;;;;16.00;99.90;;;;;;5033709;28;19917;-74
2022/07/04 06:12:53;;;;;;;;;;;16.00;99.90;;;;;;5032644;28;19932;-75
2022/07/04 06:15:18;;;;;;;;;;;16.10;99.90;;;;;;5034989;28;19936;-74
2022/07/04 06:17:44;;;;;;;;;;;16.20;99.90;;;;;;5034120;28;19968;-75
2022/07/04 06:20:10;;;;;;;;;;;16.20;99.90;;;;;;5033212;28;19913;-76
2022/07/04 06:22:42;;;;;;;;;;;16.30;99.90;;;;;;5032721;28;19913;-75
2022/07/04 06:25:18;;;;;;;;;;;16.40;99.90;;;;;;5033892;28;19921;-76
2022/07/04 06:27:45;;;;;;;;;;;16.40;99.90;;;;;;5034468;28;19917;-76
2022/07/04 06:30:11;;;;;;;;;;;16.50;99.90;;;;;;5033354;28;19913;-76
2022/07/04 06:32:44;;;;;;;;;;;16.50;99.90;;;;;;5035153;28;20007;-76
2022/07/04 06:37:53;;;;;;;;;;;16.60;99.90;;;;;;5034000;28;20225;-75
2022/07/04 06:40:19;;;;;;;;;;;16.60;99.90;;;;;;5032190;28;19917;-75
2022/07/04 06:42:44;;;;;;;;;;;16.60;99.90;;;;;;5032443;28;19924;-75
2022/07/04 06:45:10;;;;;;;;;;;16.70;99.90;;;;;;5033693;28;19913;-76
2022/07/04 06:47:35;;;;;;;;;;;16.70;99.90;;;;;;5034168;28;19917;-75
2022/07/04 06:50:01;;;;;;;;;;;16.80;99.90;;;;;;5032649;28;20019;-76
2022/07/04 06:52:27;;;;;;;;;;;16.80;99.90;;;;;;5064812;28;19913;-75
2022/07/04 06:54:52;;;;;;;;;;;16.90;99.90;;;;;;5021939;28;19924;-75
2022/07/04 06:57:18;;;;;;;;;;;17.10;99.90;;;;;;5025302;28;19913;-75
2022/07/04 06:59:43;;;;;;;;;;;17.00;99.90;;;;;;5032742;28;19921;-75
2022/07/04 07:02:09;;;;;;;;;;;17.00;99.90;;;;;;5032584;28;19968;-75
2022/07/04 07:04:35;;;;;;;;;;;17.10;99.90;;;;;;5030857;28;20007;-74
2022/07/04 07:07:00;;;;;;;;;;;17.30;99.90;;;;;;5029458;28;19924;-74
2022/07/04 07:09:26;;;;;;;;;;;17.30;99.90;;;;;;5032847;28;19936;-76
2022/07/04 07:11:51;;;;;;;;;;;17.40;99.90;;;;;;5033086;28;20013;-75
2022/07/04 07:14:17;;;;;;;;;;;17.40;99.90;;;;;;5032504;28;20288;-77
2022/07/04 07:16:42;;;;;;;;;;;17.50;99.90;;;;;;5032971;28;19913;-75
2022/07/04 07:19:07;;;;;;;;;;;17.60;99.90;;;;;;5033934;28;19924;-76
2022/07/04 07:21:33;;;;;;;;;;;17.70;99.90;;;;;;5032692;28;20232;-74
2022/07/04 07:24:00;;;;;;;;;;;17.70;99.90;;;;;;5032897;28;20220;-76
2022/07/04 07:26:25;;;;;;;;;;;17.80;99.90;;;;;;5033848;28;20015;-75
2022/07/04 07:28:51;;;;;;;;;;;17.80;99.90;;;;;;5031378;28;20305;-76
2022/07/04 07:31:16;;;;;;;;;;;17.90;99.90;;;;;;5032503;28;20327;-75
2022/07/04 07:33:42;;;;;;;;;;;18.00;99.90;;;;;;5032740;28;20244;-75
2022/07/04 07:36:08;;;;;;;;;;;18.20;99.90;;;;;;5033470;28;20286;-76
2022/07/04 07:38:33;;;;;;;;;;;18.10;99.90;;;;;;5031821;28;19917;-74
2022/07/04 07:40:59;;;;;;;;;;;18.30;99.90;;;;;;5033161;28;19921;-76
2022/07/04 07:43:24;;;;;;;;;;;18.50;99.90;;;;;;5033382;28;19928;-75
2022/07/04 07:45:50;;;;;;;;;;;18.50;99.90;;;;;;5032057;28;19917;-76
2022/07/04 07:48:16;;;;;;;;;;;18.50;99.90;;;;;;5030738;28;19917;-75
2022/07/04 07:50:41;;;;;;;;;;;18.60;99.90;;;;;;5031820;28;19940;-75
2022/07/04 07:53:07;;;;;;;;;;;18.80;99.90;;;;;;5032264;28;19960;-76
2022/07/04 07:55:32;;;;;;;;;;;18.90;99.90;;;;;;5032467;28;19913;-75
2022/07/04 07:57:58;;;;;;;;;;;19.20;99.90;;;;;;5022936;28;20294;-76
2022/07/04 08:00:24;;;;;;;;;;;19.60;99.90;;;;;;5023823;28;19921;-75
2022/07/04 08:05:33;;;;;;;;;;;20.10;99.90;;;;;;5031283;28;20004;-75
2022/07/04 08:07:59;;;;;;;;;;;20.60;99.90;;;;;;5029689;28;20011;-76
2022/07/04 08:10:25;;;;;;;;;;;20.80;99.90;;;;;;5032067;28;19916;-75
2022/07/04 08:12:51;;;;;;;;;;;20.80;99.90;;;;;;5032033;28;20664;-75
2022/07/04 08:15:17;;;;;;;;;;;20.80;99.90;;;;;;5031500;28;19919;-76
2022/07/04 08:17:44;;;;;;;;;;;20.90;99.90;;;;;;5064142;28;19921;-75
2022/07/04 08:20:10;;;;;;;;;;;21.00;99.90;;;;;;5032036;28;19967;-77
2022/07/04 08:22:36;;;;;;;;;;;20.90;99.90;;;;;;5031593;28;20012;-77
2022/07/04 08:25:02;;;;;;;;;;;21.00;99.90;;;;;;5026531;28;20000;-76
2022/07/04 08:27:27;;;;;;;;;;;21.30;99.90;;;;;;5028982;28;19918;-78
2022/07/04 08:29:53;;;;;;;;;;;21.60;99.90;;;;;;5028970;28;19913;-75
2022/07/04 08:32:18;;;;;;;;;;;21.90;99.90;;;;;;5031359;28;19917;-77
2022/07/04 08:34:44;;;;;;;;;;;22.40;99.90;;;;;;5029750;28;21540;-76
2022/07/04 08:37:10;;;;;;;;;;;22.60;99.90;;;;;;5009231;28;19917;-76
2022/07/04 08:39:35;;;;;;;;;;;22.50;99.90;;;;;;5031367;28;19913;-76
2022/07/04 08:42:09;;;;;;;;;;;22.30;99.90;;;;;;5032364;28;19971;-77
2022/07/04 08:44:38;;;;;;;;;;;21.90;99.90;;;;;;5032139;28;19913;-76
2022/07/04 08:47:05;;;;;;;;;;;21.60;99.90;;;;;;5030931;28;19923;-77
2022/07/04 08:49:32;;;;;;;;;;;21.20;99.90;;;;;;5029269;28;19917;-77
2022/07/04 08:52:04;;;;;;;;;;;21.20;99.90;;;;;;5030703;28;20000;-77
2022/07/04 08:59:59;;;;;;;;;;;20.30;99.90;;;;;;5031359;28;20258;-75
2022/07/04 09:02:26;;;;;;;;;;;20.00;99.90;;;;;;5032402;28;20012;-77
2022/07/04 09:04:51;;;;;;;;;;;20.30;99.90;;;;;;5030075;28;19917;-77
2022/07/04 09:07:17;;;;;;;;;;;20.50;99.90;;;;;;5032589;28;19921;-78
2022/07/04 09:09:44;;;;;;;;;;;21.20;99.90;;;;;;5028394;28;19921;-77
2022/07/04 09:12:10;;;;;;;;;;;21.70;99.90;;;;;;5026670;28;20213;-77
2022/07/04 09:14:35;;;;;;;;;;;21.90;99.90;;;;;;5028321;28;19929;-76
2022/07/04 09:17:01;;;;;;;;;;;21.90;99.90;;;;;;5026713;28;19917;-77
2022/07/04 09:19:27;;;;;;;;;;;21.80;99.90;;;;;;5027160;28;19917;-75
2022/07/04 09:21:52;;;;;;;;;;;22.10;99.90;;;;;;5027219;28;19921;-75
2022/07/04 09:24:41;;;;;;;;;;;22.00;99.90;;;;;;5028213;28;19917;-77
2022/07/04 09:27:06;;;;;;;;;;;22.10;99.90;;;;;;5028883;28;19921;-77
2022/07/04 09:29:32;;;;;;;;;;;22.00;99.90;;;;;;5031667;28;19925;-77
2022/07/04 09:31:57;;;;;;;;;;;21.90;99.90;;;;;;5032174;28;19917;-76
2022/07/04 09:34:23;;;;;;;;;;;22.10;99.90;;;;;;5031122;28;19921;-77
2022/07/04 09:36:52;;;;;;;;;;;22.40;99.90;;;;;;5021022;28;19987;-76
2022/07/04 09:39:20;;;;;;;;;;;22.70;99.90;;;;;;5032284;28;19956;-78
2022/07/04 09:41:50;;;;;;;;;;;23.10;99.90;;;;;;5031244;28;19928;-78
2022/07/04 09:44:15;;;;;;;;;;;23.60;98.30;;;;;;5021851;28;19912;-75
2022/07/04 09:46:41;;;;;;;;;;;23.90;99.50;;;;;;5031080;28;20201;-74
2022/07/04 09:49:06;;;;;;;;;;;23.90;98.20;;;;;;5031280;28;19939;-77
2022/07/04 09:51:58;;;;;;;;;;;23.60;98.40;;;;;;5031101;28;20347;-76
2022/07/04 09:54:28;;;;;;;;;;;23.70;97.60;;;;;;5060559;28;19953;-76
2022/07/04 09:56:55;;;;;;;;;;;23.70;97.60;;;;;;5029622;28;20039;-76
2022/07/04 09:59:21;;;;;;;;;;;24.10;97.20;;;;;;5031927;28;19917;-77
2022/07/04 10:01:47;;;;;;;;;;;24.00;96.70;;;;;;5031635;28;20371;-75
2022/07/04 10:04:13;;;;;;;;;;;23.90;96.20;;;;;;5030424;28;20016;-76
2022/07/04 10:06:42;;;;;;;;;;;23.70;96.70;;;;;;5030976;28;20468;-76
2022/07/04 10:09:15;;;;;;;;;;;23.50;97.60;;;;;;5030152;28;20282;-80
2022/07/04 10:11:41;;;;;;;;;;;23.00;96.70;;;;;;5029014;28;19932;-76
2022/07/04 10:14:08;;;;;;;;;;;22.90;97.80;;;;;;5030930;28;19917;-76
2022/07/04 10:16:33;;;;;;;;;;;22.90;96.70;;;;;;5027490;28;19921;-75
2022/07/04 10:18:59;;;;;;;;;;;22.50;97.40;;;;;;5024933;28;20339;-78
2022/07/04 10:21:24;;;;;;;;;;;22.60;99.90;;;;;;5029718;28;19928;-75
2022/07/04 10:23:51;;;;;;;;;;;22.90;97.10;;;;;;5044113;28;19917;-77
2022/07/04 10:26:20;;;;;;;;;;;23.50;98.10;;;;;;5029213;28;20221;-76
2022/07/04 10:28:49;;;;;;;;;;;23.90;99.00;;;;;;5031211;28;20370;-76
2022/07/04 10:31:16;;;;;;;;;;;24.00;97.80;;;;;;5029382;28;19924;-79
2022/07/04 10:33:43;;;;;;;;;;;23.30;97.60;;;;;;5042330;28;19963;-76
2022/07/04 10:36:22;;;;;;;;;;;22.80;96.60;;;;;;5028549;28;19913;-77
2022/07/04 10:39:01;;;;;;;;;;;23.20;99.40;;;;;;5033321;28;19952;-76
2022/07/04 10:41:30;;;;;;;;;;;23.40;96.60;;;;;;5032800;28;20008;-77
2022/07/04 10:44:06;;;;;;;;;;;23.30;98.60;;;;;;5031876;28;19931;-77
2022/07/04 10:46:33;;;;;;;;;;;23.20;96.70;;;;;;5030871;28;20007;-80
2022/07/04 10:49:01;;;;;;;;;;;23.50;96.00;;;;;;5032901;28;19974;-76
2022/07/04 10:51:39;;;;;;;;;;;23.70;98.30;;;;;;5033065;28;20297;-78
2022/07/04 10:54:08;;;;;;;;;;;23.70;96.50;;;;;;5028609;28;20212;-75
2022/07/04 10:56:43;;;;;;;;;;;24.00;97.50;;;;;;5032889;28;19913;-77
2022/07/04 10:59:10;;;;;;;;;;;23.40;96.10;;;;;;5030268;28;20173;-78
2022/07/04 11:01:35;;;;;;;;;;;23.00;97.00;;;;;;5032638;28;19925;-76
2022/07/04 11:04:01;;;;;;;;;;;22.70;97.40;;;;;;5033560;28;19909;-76
2022/07/04 11:06:29;;;;;;;;;;;22.60;97.20;;;;;;5033878;28;19921;-75
2022/07/04 11:09:16;;;;;;;;;;;23.10;98.60;;;;;;5042601;28;19921;-81
2022/07/04 11:11:49;;;;;;;;;;;23.10;96.90;;;;;;5033644;28;20336;-77
2022/07/04 11:14:33;;;;;;;;;;;22.30;96.30;;;;;;5030619;28;19921;-78
2022/07/04 11:16:59;;;;;;;;;;;22.10;97.10;;;;;;5032242;28;19917;-77
2022/07/04 11:19:25;;;;;;;;;;;21.70;97.90;;;;;;5032126;28;20012;-76
2022/07/04 11:21:50;;;;;;;;;;;21.80;97.80;;;;;;5024171;28;19913;-78
2022/07/04 11:24:16;;;;;;;;;;;21.70;96.70;;;;;;5033307;28;20620;-75
2022/07/04 11:26:42;;;;;;;;;;;21.80;98.30;;;;;;5032837;28;20275;-79
2022/07/04 11:29:08;;;;;;;;;;;22.40;99.10;;;;;;5031220;28;19936;-77
2022/07/04 11:31:52;;;;;;;;;;;23.00;97.80;;;;;;5030264;28;19967;-80
2022/07/04 11:34:18;;;;;;;;;;;23.40;95.20;;;;;;5029201;28;19917;-76
2022/07/04 11:36:45;;;;;;;;;;;23.90;96.90;;;;;;5028120;28;19917;-74
2022/07/04 11:39:12;;;;;;;;;;;24.40;96.70;;;;;;5029150;28;20243;-77
2022/07/04 11:47:11;;;;;;;;;;;23.20;94.50;;;;;;5029679;28;20115;-76
2022/07/04 11:49:41;;;;;;;;;;;23.00;96.90;;;;;;5027867;28;19913;-77
2022/07/04 11:52:07;;;;;;;;;;;23.30;98.70;;;;;;5028951;28;19963;-75
2022/07/04 11:54:33;;;;;;;;;;;23.40;96.00;;;;;;5027144;28;19917;-75
2022/07/04 11:57:28;;;;;;;;;;;23.20;96.00;;;;;;5027707;28;19924;-77
2022/07/04 11:59:55;;;;;;;;;;;23.50;97.10;;;;;;5024061;28;20335;-77
2022/07/04 12:02:21;;;;;;;;;;;23.50;97.60;;;;;;5025494;28;20140;-75
2022/07/04 12:04:46;;;;;;;;;;;23.60;94.50;;;;;;5009707;28;19999;-76
2022/07/04 12:07:13;;;;;;;;;;;23.10;94.80;;;;;;5026559;28;19920;-75
2022/07/04 12:09:39;;;;;;;;;;;23.00;96.50;;;;;;5043865;28;20252;-76
2022/07/04 12:12:04;;;;;;;;;;;23.30;97.50;;;;;;5009475;28;19986;-80
2022/07/04 12:14:30;;;;;;;;;;;23.60;94.60;;;;;;5009606;28;19917;-77
2022/07/04 12:17:14;;;;;;;;;;;23.90;96.40;;;;;;5026550;28;19917;-75
2022/07/04 12:19:53;;;;;;;;;;;24.30;95.80;;;;;;5025043;28;20312;-76
2022/07/04 12:22:24;;;;;;;;;;;24.00;94.00;;;;;;5032176;28;20687;-76
2022/07/04 12:24:51;;;;;;;;;;;23.60;95.80;;;;;;5024133;28;20539;-77
2022/07/04 12:27:17;;;;;;;;;;;23.50;95.40;;;;;;5025180;28;19994;-79
2022/07/04 12:29:46;;;;;;;;;;;23.70;96.70;;;;;;5033417;28;19917;-76
2022/07/04 12:32:14;;;;;;;;;;;24.00;97.00;;;;;;5024617;28;19917;-77
2022/07/04 12:34:39;;;;;;;;;;;24.30;96.10;;;;;;5024347;28;19917;-78
2022/07/04 12:37:07;;;;;;;;;;;24.40;95.60;;;;;;5057683;28;19927;-77
2022/07/04 12:39:34;;;;;;;;;;;24.40;94.30;;;;;;5025527;28;19955;-76
2022/07/04 12:42:03;;;;;;;;;;;24.40;95.90;;;;;;5027719;28;19956;-76
2022/07/04 12:44:29;;;;;;;;;;;24.40;94.40;;;;;;5030871;28;20012;-76
2022/07/04 12:46:58;;;;;;;;;;;24.30;95.30;;;;;;5030202;28;20012;-78
2022/07/04 12:49:24;;;;;;;;;;;24.40;94.70;;;;;;5023239;28;20213;-75
2022/07/04 12:51:50;;;;;;;;;;;24.40;95.60;;;;;;5030240;28;19940;-76
2022/07/04 12:54:15;;;;;;;;;;;24.40;95.90;;;;;;5029414;28;19975;-76
2022/07/04 12:56:43;;;;;;;;;;;24.40;96.00;;;;;;5031097;28;19917;-77
2022/07/04 12:59:10;;;;;;;;;;;24.50;95.20;;;;;;5028412;28;19925;-74
2022/07/04 13:01:35;;;;;;;;;;;24.70;95.60;;;;;;5032183;28;19921;-77
2022/07/04 13:04:01;;;;;;;;;;;24.70;94.80;;;;;;5034302;28;19959;-78
2022/07/04 13:06:27;;;;;;;;;;;24.50;95.00;;;;;;5032351;28;21528;-76
2022/07/04 13:08:53;;;;;;;;;;;24.50;95.40;;;;;;5033025;28;19924;-76
2022/07/04 13:14:04;;;;;;;;;;;24.30;93.30;;;;;;5033957;28;19925;-78
2022/07/04 13:16:29;;;;;;;;;;;24.10;95.20;;;;;;5032972;28;19913;-76
2022/07/04 13:18:55;;;;;;;;;;;24.30;94.90;;;;;;5034090;28;19924;-77
2022/07/04 13:21:20;;;;;;;;;;;24.40;93.80;;;;;;5033650;28;19921;-77
2022/07/04 13:23:46;;;;;;;;;;;24.30;95.40;;;;;;5028331;28;20331;-76
2022/07/04 13:26:11;;;;;;;;;;;23.90;94.70;;;;;;5032380;28;19917;-74
2022/07/04 13:28:37;;;;;;;;;;;24.00;95.20;;;;;;5027487;28;19943;-77
2022/07/04 13:31:03;;;;;;;;;;;23.90;95.10;;;;;;5032587;28;19935;-78
2022/07/04 13:33:29;;;;;;;;;;;24.00;94.80;;;;;;5026877;28;19960;-77
2022/07/04 13:35:54;;;;;;;;;;;24.20;95.20;;;;;;5036855;28;19960;-74
2022/07/04 13:38:20;;;;;;;;;;;23.90;96.30;;;;;;5032405;28;19917;-76
2022/07/04 13:40:45;;;;;;;;;;;23.90;93.80;;;;;;5029517;28;19955;-78
2022/07/04 13:43:11;;;;;;;;;;;24.10;95.50;;;;;;5028034;28;19948;-76
2022/07/04 13:45:41;;;;;;;;;;;24.10;95.70;;;;;;5029306;28;19917;-76
2022/07/04 13:48:06;;;;;;;;;;;24.10;96.40;;;;;;5031876;28;19971;-76
2022/07/04 13:50:35;;;;;;;;;;;24.30;93.60;;;;;;5032173;28;19913;-78
2022/07/04 13:53:01;;;;;;;;;;;24.20;93.40;;;;;;5031047;28;19956;-75
2022/07/04 13:55:26;;;;;;;;;;;24.00;94.40;;;;;;5031414;28;20276;-77
2022/07/04 13:57:52;;;;;;;;;;;23.60;96.80;;;;;;5022222;28;19920;-74
2022/07/04 14:00:18;;;;;;;;;;;23.70;95.40;;;;;;5030296;28;19913;-77
2022/07/04 14:02:43;;;;;;;;;;;24.00;94.80;;;;;;5013146;28;19921;-79
2022/07/04 14:05:09;;;;;;;;;;;23.90;96.70;;;;;;5030356;28;19921;-75
2022/07/04 14:07:35;;;;;;;;;;;24.00;95.60;;;;;;5032856;28;20011;-78
2022/07/04 14:10:01;;;;;;;;;;;24.00;94.70;;;;;;5029544;28;20295;-77
2022/07/04 14:12:27;;;;;;;;;;;24.20;94.90;;;;;;5030702;28;19921;-77
2022/07/04 14:14:52;;;;;;;;;;;24.30;95.20;;;;;;5064730;28;20343;-77
2022/07/04 14:17:18;;;;;;;;;;;24.30;95.00;;;;;;5032964;28;19959;-77
2022/07/04 14:19:43;;;;;;;;;;;23.70;95.90;;;;;;5034339;28;20223;-76
2022/07/04 14:22:09;;;;;;;;;;;23.50;95.40;;;;;;5033685;28;19917;-76
2022/07/04 14:24:35;;;;;;;;;;;23.60;95.40;;;;;;5033660;28;19921;-76
2022/07/04 14:27:00;;;;;;;;;;;23.60;94.80;;;;;;5032653;28;19951;-81
2022/07/04 14:29:26;;;;;;;;;;;23.50;95.30;;;;;;5035352;28;19913;-77
2022/07/04 14:31:51;;;;;;;;;;;23.50;95.90;;;;;;5032221;28;19919;-76
2022/07/04 14:34:17;;;;;;;;;;;23.80;95.10;;;;;;5032598;28;19972;-77
2022/07/04 14:36:43;;;;;;;;;;;24.10;95.70;;;;;;5032363;28;20015;-77